ESFA weather

Hässleholm Bokeberg Airfield
Hässleholm, Skåne län, Sweden

Public forecast

Using degrees Celsius for public forecast. Weather courtesy of forecast.io.

METAR (pilot weather report)

Closest report is Kristianstad Airport, 14.6 nm (27.0 km) SSE. Retrieved 2019/09/19 03:20 UTC (0 seconds ago):

ESMK 190320Z 29005KT CAVOK 06/04 Q1021

TAF (pilot weather forecast)

Forecast is more than 12 hours old.

Closest forecast is Kristianstad Airport, 14.6 nm (27.0 km) SSE. Retrieved 2015/03/18 12:33 UTC (5 years ago):

TAF ESMK 181130Z 1812/1824 13012KT CAVOK